Nebo, North Carolina
Current Conditions -  °F | °C
As of 1:35 AM on Friday 28 Nov 2014 (Local Time) from KFQD Reporting Station
Clear Clear  
Wind Chill: 27°   Ceiling: Unl
Heat Index: 32°   Visibility: 10mi
Dew Point: 17°   Wind: 5mph
Humidity: 54%   Direction: 350°N
Pressure: 30.31"   Gusts: NA
Location:  35.67°N, 81.9°W
Report Text: KFQD 280635Z AUTO 35004KT 10SM CLR 00/M08 A3031 RMK AO2 T10021085
Loading
Personal Weather Stations






























Interactive Weather Map New forecast layout! Learn more

10-Day Weather Forecast

Advertisements
Track Severe Weather on mobile